Time;durP1;ratioP1;P1;durP2;ratioP2;P2;SDS_P1;SDS_P2;PMS_P1;PMS_P2;Temp;Humidity;BMP_temperature;BMP_pressure;BME280_temperature;BME280_humidity;BME280_pressure;Samples;Min_cycle;Max_cycle;Signal;HPM_P1;HPM_P2
2023/02/11 00:00:12;;;;;;;29.67;15.23;;;7.90;97.60;;;;;;5047666;28;20257;-74
2023/02/11 00:02:38;;;;;;;32.95;17.35;;;7.90;97.40;;;;;;5048550;28;20043;-73
2023/02/11 00:05:04;;;;;;;28.33;16.42;;;7.90;97.50;;;;;;5049862;28;20032;-73
2023/02/11 00:07:31;;;;;;;26.30;14.55;;;7.90;97.50;;;;;;5051294;28;20095;-73
2023/02/11 00:09:56;;;;;;;23.83;13.10;;;7.90;97.50;;;;;;5069302;28;20029;-74
2023/02/11 00:12:22;;;;;;;27.00;14.65;;;7.90;97.40;;;;;;5056043;28;20029;-73
2023/02/11 00:14:48;;;;;;;26.15;14.63;;;7.90;97.40;;;;;;5047948;28;20031;-74
2023/02/11 00:17:14;;;;;;;28.75;12.80;;;7.90;97.40;;;;;;5047562;28;20029;-74
2023/02/11 00:19:40;;;;;;;24.88;12.30;;;7.90;97.40;;;;;;5049570;28;20029;-75
2023/02/11 00:22:06;;;;;;;25.65;13.07;;;7.90;97.30;;;;;;5058984;28;20039;-74
2023/02/11 00:24:32;;;;;;;32.38;12.98;;;7.90;97.30;;;;;;5069527;28;20040;-73
2023/02/11 00:26:57;;;;;;;23.38;11.68;;;7.90;97.30;;;;;;5061867;28;20517;-74
2023/02/11 00:29:23;;;;;;;28.38;11.27;;;7.90;97.30;;;;;;5051903;28;20021;-75
2023/02/11 00:31:49;;;;;;;27.08;12.93;;;7.90;97.30;;;;;;5061771;28;20063;-72
2023/02/11 00:34:14;;;;;;;25.98;11.90;;;7.90;97.20;;;;;;5051099;28;20017;-72
2023/02/11 00:36:40;;;;;;;25.63;13.10;;;7.90;97.20;;;;;;5048011;28;20100;-74
2023/02/11 00:39:07;;;;;;;26.45;10.52;;;7.90;97.10;;;;;;5067051;28;20459;-74
2023/02/11 00:41:33;;;;;;;23.88;11.02;;;7.90;97.20;;;;;;5061830;28;20843;-74
2023/02/11 00:43:59;;;;;;;24.10;12.02;;;7.90;97.20;;;;;;5048176;28;20036;-74
2023/02/11 00:46:25;;;;;;;33.65;12.40;;;7.90;97.20;;;;;;5048225;28;20028;-73
2023/02/11 00:48:53;;;;;;;33.38;13.55;;;7.90;97.10;;;;;;5042509;28;20021;-74
2023/02/11 00:51:19;;;;;;;24.27;11.52;;;8.00;97.00;;;;;;5073126;28;20504;-74
2023/02/11 00:53:45;;;;;;;22.10;11.13;;;8.00;96.90;;;;;;5048390;28;20021;-74
2023/02/11 00:56:10;;;;;;;35.13;12.32;;;8.00;96.90;;;;;;5047316;28;20082;-74
2023/02/11 00:58:36;;;;;;;36.30;14.38;;;8.10;96.80;;;;;;5030845;28;20026;-75
2023/02/11 01:01:03;;;;;;;35.45;13.07;;;8.10;96.80;;;;;;5035632;28;20035;-74
2023/02/11 01:03:28;;;;;;;54.92;20.17;;;8.00;96.90;;;;;;5027003;28;20036;-74
2023/02/11 01:05:54;;;;;;;37.17;11.93;;;8.00;96.90;;;;;;5028352;28;20033;-74
2023/02/11 01:08:20;;;;;;;25.00;10.60;;;8.00;96.90;;;;;;5028137;28;20399;-74
2023/02/11 01:10:57;;;;;;;25.27;10.73;;;8.00;96.90;;;;;;5026451;28;20068;-74
2023/02/11 01:13:23;;;;;;;27.25;12.13;;;8.00;96.90;;;;;;5045357;28;20025;-74
2023/02/11 01:15:49;;;;;;;28.90;11.88;;;8.00;96.90;;;;;;5048533;28;20049;-74
2023/02/11 01:18:15;;;;;;;30.73;11.32;;;8.00;97.00;;;;;;5048316;28;20023;-75
2023/02/11 01:20:40;;;;;;;22.10;11.02;;;8.00;96.90;;;;;;5028815;28;20041;-74
2023/02/11 01:23:06;;;;;;;35.97;12.20;;;8.00;96.90;;;;;;5052279;28;20160;-73
2023/02/11 01:25:32;;;;;;;20.30;8.93;;;8.10;96.90;;;;;;5046194;28;20480;-74
2023/02/11 01:27:57;;;;;;;28.13;9.98;;;8.00;96.90;;;;;;5025981;28;20092;-74
2023/02/11 01:30:23;;;;;;;27.92;10.95;;;8.00;96.90;;;;;;5047367;28;20024;-74
2023/02/11 01:32:48;;;;;;;28.25;10.23;;;8.00;97.00;;;;;;5066373;28;20028;-73
2023/02/11 01:35:14;;;;;;;25.73;10.82;;;7.90;97.30;;;;;;5066638;28;20020;-74
2023/02/11 01:37:40;;;;;;;28.08;10.85;;;8.00;96.90;;;;;;5053099;28;20040;-73
2023/02/11 01:40:12;;;;;;;29.38;10.45;;;8.00;96.90;;;;;;5046860;28;20073;-74
2023/02/11 01:42:38;;;;;;;30.88;10.52;;;8.00;96.90;;;;;;5038182;28;20032;-74
2023/02/11 01:45:40;;;;;;;25.45;10.18;;;8.00;96.90;;;;;;5037096;28;20128;-73
2023/02/11 01:48:09;;;;;;;26.88;10.10;;;7.90;97.10;;;;;;5047268;28;20116;-74
2023/02/11 01:50:37;;;;;;;20.45;9.68;;;8.00;97.00;;;;;;5047328;28;20083;-75
2023/02/11 01:57:20;;;;;;;25.33;9.65;;;8.00;96.90;;;;;;5050097;28;20025;-73
2023/02/11 01:58:47;;;;;;;27.05;10.98;;;8.00;96.90;;;;;;5048493;28;20445;-75
2023/02/11 02:01:22;;;;;;;27.90;10.90;;;8.00;96.90;;;;;;5051209;28;20021;-74
2023/02/11 02:03:51;;;;;;;34.45;10.23;;;8.00;96.90;;;;;;5047703;28;20025;-74
2023/02/11 02:06:28;;;;;;;26.05;10.07;;;8.00;96.90;;;;;;5051169;28;20033;-73
2023/02/11 02:09:04;;;;;;;32.00;12.38;;;8.00;96.90;;;;;;5050831;28;20025;-73
2023/02/11 02:11:30;;;;;;;25.92;10.82;;;7.90;96.90;;;;;;5050305;28;20033;-74
2023/02/11 02:13:55;;;;;;;33.17;11.05;;;7.90;97.10;;;;;;5050019;28;20036;-74
2023/02/11 02:16:25;;;;;;;26.48;10.60;;;7.90;97.10;;;;;;5051404;28;20035;-74
2023/02/11 02:19:28;;;;;;;27.85;10.55;;;7.90;97.10;;;;;;5048025;28;20119;-75
2023/02/11 02:22:09;;;;;;;21.85;9.48;;;7.90;97.10;;;;;;5041033;28;20086;-74
2023/02/11 02:24:50;;;;;;;37.47;10.68;;;7.80;97.20;;;;;;5062560;28;20041;-74
2023/02/11 02:27:56;;;;;;;23.98;10.15;;;7.80;97.20;;;;;;5030949;28;20060;-73
2023/02/11 02:30:41;;;;;;;24.55;9.43;;;7.80;97.20;;;;;;5041960;28;20110;-74
2023/02/11 02:33:44;;;;;;;28.67;11.07;;;7.80;97.20;;;;;;5056241;28;20036;-74
2023/02/11 02:36:20;;;;;;;28.42;9.93;;;7.80;97.20;;;;;;5051800;28;20410;-74
2023/02/11 02:38:56;;;;;;;29.92;9.43;;;7.80;97.30;;;;;;5048920;28;20489;-73
2023/02/11 02:41:27;;;;;;;23.95;9.60;;;7.80;97.40;;;;;;5049767;28;20017;-74
2023/02/11 02:43:53;;;;;;;30.38;10.95;;;7.70;97.40;;;;;;5049933;28;20044;-73
2023/02/11 02:46:28;;;;;;;32.47;10.77;;;7.70;97.50;;;;;;5050246;28;20029;-74
2023/02/11 02:48:54;;;;;;;27.08;10.23;;;7.70;97.60;;;;;;5046849;28;20037;-74
2023/02/11 02:51:52;;;;;;;27.73;10.88;;;7.80;97.60;;;;;;5041553;28;20125;-74
2023/02/11 02:54:45;;;;;;;23.98;9.65;;;7.80;97.60;;;;;;5062736;28;20400;-74
2023/02/11 02:57:37;;;;;;;26.35;10.50;;;7.80;97.60;;;;;;5045497;28;20033;-74
2023/02/11 03:00:40;;;;;;;25.05;10.30;;;7.80;97.50;;;;;;5050168;28;20155;-74
2023/02/11 03:03:12;;;;;;;24.27;9.68;;;7.70;97.70;;;;;;5058411;28;20049;-74
2023/02/11 03:06:07;;;;;;;28.10;10.77;;;7.70;97.90;;;;;;5069492;28;20044;-74
2023/02/11 03:09:00;;;;;;;27.67;10.45;;;7.70;97.70;;;;;;5066134;28;20024;-73
2023/02/11 03:11:27;;;;;;;27.10;11.45;;;7.60;97.90;;;;;;5029846;28;20842;-73
2023/02/11 03:13:55;;;;;;;27.88;11.63;;;7.60;98.00;;;;;;5052566;28;20020;-74
2023/02/11 03:16:26;;;;;;;29.27;11.50;;;7.60;98.10;;;;;;5068616;28;20066;-74
2023/02/11 03:19:18;;;;;;;28.50;10.68;;;7.60;98.10;;;;;;5069651;28;20108;-74
2023/02/11 03:21:47;;;;;;;26.30;10.40;;;7.60;98.10;;;;;;5064032;28;20767;-75
2023/02/11 03:24:23;;;;;;;29.13;11.52;;;7.60;98.10;;;;;;5058774;28;20028;-73
2023/02/11 03:26:52;;;;;;;28.17;11.88;;;7.60;98.50;;;;;;5051287;28;20055;-75
2023/02/11 03:29:35;;;;;;;32.05;12.80;;;7.60;98.20;;;;;;5069677;28;20093;-75
2023/02/11 03:32:07;;;;;;;31.58;12.93;;;7.60;98.30;;;;;;5070038;28;20044;-74
2023/02/11 03:35:00;;;;;;;31.98;12.70;;;7.50;98.50;;;;;;5053927;28;20024;-74
2023/02/11 03:37:39;;;;;;;29.65;12.45;;;7.60;98.50;;;;;;5050564;28;20036;-73
2023/02/11 03:40:10;;;;;;;30.60;11.93;;;7.60;98.50;;;;;;5051952;28;20059;-74
2023/02/11 03:42:43;;;;;;;25.88;11.48;;;7.60;98.40;;;;;;5049116;28;20096;-73
2023/02/11 03:45:13;;;;;;;25.38;11.45;;;7.60;98.50;;;;;;5048369;28;20029;-74
2023/02/11 03:47:44;;;;;;;22.02;12.13;;;7.60;98.50;;;;;;5048847;28;20057;-75
2023/02/11 03:50:13;;;;;;;30.25;12.55;;;7.60;98.50;;;;;;5036294;28;20151;-74
2023/02/11 03:52:39;;;;;;;30.70;12.00;;;7.60;98.40;;;;;;5049709;28;20028;-74
2023/02/11 03:55:11;;;;;;;28.30;13.50;;;7.70;98.40;;;;;;5047015;28;20284;-75
2023/02/11 03:57:37;;;;;;;28.67;12.80;;;7.60;98.30;;;;;;5033823;28;20017;-74
2023/02/11 04:00:04;;;;;;;29.90;13.23;;;7.70;98.50;;;;;;5028885;28;20120;-73
2023/02/11 04:02:33;;;;;;;33.55;14.68;;;7.60;98.60;;;;;;5028592;28;20423;-74
2023/02/11 04:04:59;;;;;;;38.83;14.85;;;7.60;98.70;;;;;;5045210;28;20037;-75
2023/02/11 04:07:25;;;;;;;27.10;12.65;;;7.60;98.60;;;;;;5048978;28;20139;-73
2023/02/11 04:09:51;;;;;;;35.42;15.10;;;7.70;98.50;;;;;;5048622;28;20418;-75
2023/02/11 04:12:17;;;;;;;26.77;13.32;;;7.70;98.60;;;;;;5048805;28;20032;-74
2023/02/11 04:14:42;;;;;;;27.98;14.88;;;7.80;98.60;;;;;;5046416;28;20025;-73
2023/02/11 04:17:09;;;;;;;37.38;14.98;;;7.80;98.60;;;;;;5061729;28;20515;-74
2023/02/11 04:19:34;;;;;;;39.08;14.70;;;7.80;98.60;;;;;;5068210;28;20111;-73
2023/02/11 04:22:00;;;;;;;29.15;13.85;;;7.80;98.50;;;;;;5054574;28;20104;-74
2023/02/11 04:24:26;;;;;;;34.78;16.13;;;7.90;98.40;;;;;;5047523;28;20505;-76
2023/02/11 04:26:51;;;;;;;33.15;15.90;;;7.80;98.40;;;;;;5029335;28;20049;-74
2023/02/11 04:29:18;;;;;;;38.42;16.98;;;7.80;98.50;;;;;;5028841;28;20057;-74
2023/02/11 04:31:43;;;;;;;47.15;19.35;;;7.80;98.60;;;;;;5031013;28;20075;-74
2023/02/11 04:34:09;;;;;;;37.38;16.38;;;7.80;98.70;;;;;;5047147;28;20438;-74
2023/02/11 04:36:34;;;;;;;42.70;18.98;;;7.80;98.60;;;;;;5048585;28;20478;-74
2023/02/11 04:39:00;;;;;;;35.08;15.68;;;7.70;98.70;;;;;;5037877;28;20032;-73
2023/02/11 04:41:26;;;;;;;49.92;19.20;;;7.80;98.60;;;;;;5048105;28;20531;-74
2023/02/11 04:43:51;;;;;;;43.60;19.02;;;7.80;98.60;;;;;;5047596;28;20399;-73
2023/02/11 04:46:17;;;;;;;35.85;18.75;;;7.80;98.60;;;;;;5048140;28;20036;-73
2023/02/11 04:48:43;;;;;;;40.05;18.98;;;7.70;98.70;;;;;;5047573;28;20033;-74
2023/02/11 04:51:08;;;;;;;40.75;17.00;;;7.70;98.80;;;;;;5027905;28;20109;-73
2023/02/11 04:53:34;;;;;;;38.80;18.00;;;7.70;98.70;;;;;;5057820;28;20048;-74
2023/02/11 04:55:59;;;;;;;36.13;17.27;;;7.70;98.80;;;;;;5047938;28;20033;-75
2023/02/11 04:58:25;;;;;;;33.92;16.38;;;7.70;98.80;;;;;;5046882;28;20066;-74
2023/02/11 05:00:51;;;;;;;40.13;17.80;;;7.80;98.90;;;;;;5029159;28;20072;-75
2023/02/11 05:03:16;;;;;;;34.80;18.15;;;7.70;99.00;;;;;;5047643;28;20509;-74
2023/02/11 05:05:42;;;;;;;35.83;17.90;;;7.80;98.90;;;;;;5049451;28;21704;-74
2023/02/11 05:08:09;;;;;;;35.90;19.45;;;7.80;98.90;;;;;;5068751;28;20127;-73
2023/02/11 05:10:35;;;;;;;42.08;21.33;;;7.80;98.90;;;;;;5067017;28;20028;-74
2023/02/11 05:13:01;;;;;;;30.38;17.42;;;7.80;98.90;;;;;;5064506;28;20479;-74
2023/02/11 05:15:27;;;;;;;31.02;18.52;;;7.80;99.00;;;;;;5068326;28;20029;-74
2023/02/11 05:17:53;;;;;;;41.63;20.83;;;7.80;99.00;;;;;;5066575;28;20487;-74
2023/02/11 05:20:20;;;;;;;42.28;21.02;;;7.80;99.00;;;;;;5068528;28;20046;-74
2023/02/11 05:22:45;;;;;;;47.20;22.23;;;7.80;99.00;;;;;;5040536;28;20160;-73
2023/02/11 05:25:11;;;;;;;43.53;20.60;;;7.90;99.00;;;;;;5060614;28;20153;-74
2023/02/11 05:27:37;;;;;;;41.65;20.95;;;7.90;99.10;;;;;;5057097;28;20444;-73
2023/02/11 05:30:04;;;;;;;49.65;22.38;;;7.90;99.00;;;;;;5071702;28;20031;-74
2023/02/11 05:32:29;;;;;;;44.42;19.40;;;7.80;99.10;;;;;;5070763;28;20021;-73
2023/02/11 05:34:55;;;;;;;43.50;22.33;;;7.80;99.20;;;;;;5053174;28;20520;-75
2023/02/11 05:37:20;;;;;;;41.00;21.27;;;7.90;99.10;;;;;;5052979;28;20032;-74
2023/02/11 05:39:46;;;;;;;38.00;21.33;;;7.90;99.10;;;;;;5051797;28;20036;-75
2023/02/11 05:42:12;;;;;;;45.20;21.77;;;7.90;99.10;;;;;;5051200;28;20033;-73
2023/02/11 05:44:38;;;;;;;47.47;23.38;;;7.90;99.10;;;;;;5051181;28;20051;-74
2023/02/11 05:47:04;;;;;;;46.63;23.58;;;7.90;99.20;;;;;;5051495;28;20025;-74
2023/02/11 05:49:29;;;;;;;48.45;23.85;;;7.90;99.10;;;;;;5046834;28;20024;-74
2023/02/11 05:51:55;;;;;;;47.03;23.90;;;7.90;99.10;;;;;;5033572;28;20561;-74
2023/02/11 05:54:20;;;;;;;36.45;20.00;;;7.90;98.90;;;;;;5051421;28;20025;-74
2023/02/11 05:56:46;;;;;;;41.35;20.08;;;7.90;99.00;;;;;;5057559;28;20052;-74
2023/02/11 05:59:13;;;;;;;43.88;24.25;;;8.00;99.00;;;;;;5070100;28;20038;-74
2023/02/11 06:01:39;;;;;;;52.58;24.42;;;7.90;99.00;;;;;;5059982;28;20017;-73
2023/02/11 06:04:05;;;;;;;46.13;21.85;;;7.90;99.10;;;;;;5050719;28;20085;-73
2023/02/11 06:06:31;;;;;;;50.63;24.50;;;7.80;99.10;;;;;;5051431;28;20099;-74
2023/02/11 06:08:56;;;;;;;51.08;24.20;;;7.80;99.10;;;;;;5050727;28;20045;-74
2023/02/11 06:11:22;;;;;;;41.30;22.92;;;7.80;99.20;;;;;;5050384;28;20098;-74
2023/02/11 06:13:47;;;;;;;45.40;25.00;;;7.80;99.30;;;;;;5042543;28;20116;-73
2023/02/11 06:16:13;;;;;;;47.35;26.52;;;7.70;99.40;;;;;;5030913;28;20476;-74
2023/02/11 06:18:39;;;;;;;44.15;25.73;;;7.80;99.40;;;;;;5031488;28;20756;-74
2023/02/11 06:21:09;;;;;;;58.10;24.92;;;7.80;99.40;;;;;;5030982;28;20108;-74
2023/02/11 06:23:35;;;;;;;53.75;25.98;;;7.80;99.30;;;;;;5059793;28;20552;-75
2023/02/11 06:26:02;;;;;;;46.30;23.40;;;7.80;99.30;;;;;;5058314;28;20075;-74
2023/02/11 06:28:30;;;;;;;56.03;24.48;;;7.80;99.30;;;;;;5050301;28;20049;-74
2023/02/11 06:30:56;;;;;;;48.80;24.35;;;7.80;99.30;;;;;;5050674;28;20035;-75
2023/02/11 06:33:22;;;;;;;48.75;26.27;;;7.80;99.30;;;;;;5058735;28;20028;-74
2023/02/11 06:35:48;;;;;;;53.90;27.45;;;7.80;99.40;;;;;;5070302;28;20095;-75
2023/02/11 06:38:14;;;;;;;43.47;21.15;;;7.80;99.40;;;;;;5047972;28;20032;-76
2023/02/11 06:40:40;;;;;;;55.47;26.73;;;7.80;99.70;;;;;;5050512;28;20033;-74
2023/02/11 06:43:06;;;;;;;56.58;26.98;;;7.80;99.40;;;;;;5060684;28;20029;-74
2023/02/11 06:45:32;;;;;;;48.70;26.48;;;7.80;99.40;;;;;;5069737;28;20040;-75
2023/02/11 06:47:57;;;;;;;60.55;28.75;;;7.80;99.50;;;;;;5069650;28;20067;-74
2023/02/11 06:50:23;;;;;;;53.78;27.88;;;7.80;99.40;;;;;;5049568;28;20051;-74
2023/02/11 06:52:48;;;;;;;53.88;28.10;;;7.80;99.80;;;;;;5049195;28;20505;-74
2023/02/11 06:55:14;;;;;;;50.67;26.05;;;7.80;99.60;;;;;;5049671;28;20063;-74
2023/02/11 06:57:39;;;;;;;54.60;29.15;;;7.80;99.50;;;;;;5045544;28;20049;-74
2023/02/11 07:00:06;;;;;;;55.08;30.48;;;7.70;99.50;;;;;;5043838;28;20025;-73
2023/02/11 07:02:31;;;;;;;55.70;29.02;;;7.80;99.60;;;;;;5039224;28;20040;-75
2023/02/11 07:04:57;;;;;;;53.33;28.95;;;7.80;99.50;;;;;;5050592;28;20041;-74
2023/02/11 07:07:22;;;;;;;53.22;28.23;;;7.90;99.50;;;;;;5053835;28;20432;-74
2023/02/11 07:09:48;;;;;;;64.57;32.10;;;7.90;99.50;;;;;;5069570;28;20025;-74
2023/02/11 07:12:13;;;;;;;63.33;32.70;;;7.90;99.50;;;;;;5035190;28;20029;-75
2023/02/11 07:14:39;;;;;;;57.75;31.52;;;7.90;99.50;;;;;;5050205;28;20024;-74
2023/02/11 07:17:05;;;;;;;59.60;30.15;;;7.90;99.50;;;;;;5049819;28;20088;-74
2023/02/11 07:19:30;;;;;;;66.82;31.90;;;7.90;99.50;;;;;;5049126;28;20029;-75
2023/02/11 07:21:56;;;;;;;62.25;32.60;;;7.90;99.60;;;;;;5050000;28;20031;-75
2023/02/11 07:24:22;;;;;;;58.10;30.63;;;7.90;99.60;;;;;;5044039;28;20037;-75
2023/02/11 07:26:47;;;;;;;58.83;31.63;;;8.00;99.70;;;;;;5030237;28;20076;-74
2023/02/11 07:29:13;;;;;;;63.13;34.25;;;7.90;99.70;;;;;;5030079;28;20056;-74
2023/02/11 07:31:38;;;;;;;77.30;37.58;;;8.00;99.70;;;;;;5030047;28;20514;-76
2023/02/11 07:34:04;;;;;;;75.50;35.83;;;8.00;99.70;;;;;;5045301;28;20032;-74
2023/02/11 07:36:31;;;;;;;80.13;38.97;;;8.00;99.80;;;;;;5051935;28;20060;-75
2023/02/11 07:38:56;;;;;;;68.50;34.55;;;8.00;99.80;;;;;;5061689;28;20033;-75
2023/02/11 07:41:24;;;;;;;82.18;38.67;;;8.00;99.80;;;;;;5050197;28;20479;-76
2023/02/11 07:43:50;;;;;;;72.03;36.30;;;8.00;99.90;;;;;;5049316;28;20509;-74
2023/02/11 07:46:19;;;;;;;62.95;31.60;;;8.00;99.90;;;;;;5045916;28;20030;-75
2023/02/11 07:48:45;;;;;;;84.65;39.70;;;8.10;99.90;;;;;;5030713;28;20026;-73
2023/02/11 07:51:15;;;;;;;65.93;36.97;;;8.10;99.80;;;;;;5033657;28;20021;-74
2023/02/11 07:53:40;;;;;;;75.87;38.67;;;8.10;99.90;;;;;;5048756;28;20025;-75
2023/02/11 07:56:07;;;;;;;70.63;39.30;;;8.00;99.90;;;;;;5049214;28;20314;-75
2023/02/11 07:58:33;;;;;;;73.30;37.28;;;8.00;99.90;;;;;;5048358;28;20529;-75
2023/02/11 08:01:07;;;;;;;77.55;40.63;;;8.10;99.90;;;;;;5051523;28;20029;-75
2023/02/11 08:03:35;;;;;;;76.93;38.53;;;8.10;99.90;;;;;;5044421;28;20052;-75
2023/02/11 08:06:09;;;;;;;81.93;40.55;;;8.10;99.80;;;;;;5047203;28;20029;-75
2023/02/11 08:08:35;;;;;;;77.60;35.90;;;8.20;99.90;;;;;;5047360;28;20024;-76
2023/02/11 08:11:24;;;;;;;80.88;39.28;;;8.10;99.90;;;;;;5043727;28;20028;-75
2023/02/11 08:13:50;;;;;;;74.82;37.88;;;8.20;99.90;;;;;;5042988;28;20021;-75
2023/02/11 08:16:26;;;;;;;80.82;43.40;;;8.20;99.90;;;;;;5047701;28;20108;-75
2023/02/11 08:18:54;;;;;;;82.72;41.70;;;8.10;99.90;;;;;;5044604;28;20020;-75
2023/02/11 08:21:20;;;;;;;82.85;42.17;;;8.10;99.90;;;;;;5046794;28;20074;-74
2023/02/11 08:23:46;;;;;;;75.57;39.90;;;8.20;99.90;;;;;;5043409;28;20025;-74
2023/02/11 08:26:18;;;;;;;91.00;44.22;;;8.10;99.90;;;;;;5046983;28;20037;-74
2023/02/11 08:28:45;;;;;;;80.57;41.38;;;8.20;99.90;;;;;;5045684;28;20555;-73
2023/02/11 08:31:14;;;;;;;84.80;41.70;;;8.20;99.90;;;;;;5045960;28;20025;-75
2023/02/11 08:33:40;;;;;;;86.22;46.78;;;8.20;99.90;;;;;;5046549;28;20507;-74
2023/02/11 08:36:27;;;;;;;86.72;43.05;;;8.20;99.90;;;;;;5048470;28;20029;-74
2023/02/11 08:38:55;;;;;;;70.30;36.63;;;8.20;99.90;;;;;;5051033;28;20355;-74
2023/02/11 08:41:20;;;;;;;76.97;41.17;;;8.30;99.90;;;;;;5049464;28;20060;-74
2023/02/11 08:43:46;;;;;;;85.03;41.80;;;8.20;99.90;;;;;;5046827;28;20065;-74
2023/02/11 08:46:15;;;;;;;83.40;41.13;;;8.30;99.90;;;;;;5045884;28;20051;-75
2023/02/11 08:48:41;;;;;;;86.28;43.90;;;8.30;99.90;;;;;;5044261;28;20020;-74
2023/02/11 08:51:08;;;;;;;69.65;36.63;;;8.30;99.90;;;;;;5047080;28;20025;-74
2023/02/11 08:53:35;;;;;;;73.22;38.03;;;8.30;99.90;;;;;;5048154;28;20020;-75
2023/02/11 08:56:00;;;;;;;76.13;38.85;;;8.40;99.90;;;;;;5047401;28;20033;-75
2023/02/11 08:58:26;;;;;;;77.53;41.85;;;8.40;99.90;;;;;;5046703;28;20067;-73
2023/02/11 09:00:52;;;;;;;78.57;41.03;;;8.50;99.90;;;;;;5047330;28;20159;-73
2023/02/11 09:03:17;;;;;;;76.57;39.60;;;8.60;99.90;;;;;;5047740;28;20025;-74
2023/02/11 09:05:46;;;;;;;85.22;42.85;;;8.60;99.90;;;;;;5059845;28;20041;-73
2023/02/11 09:08:12;;;;;;;72.68;39.85;;;8.60;99.90;;;;;;5064852;28;20037;-74
2023/02/11 09:10:38;;;;;;;69.05;36.50;;;8.60;99.90;;;;;;5027925;28;20029;-74
2023/02/11 09:13:03;;;;;;;67.15;38.40;;;8.70;99.90;;;;;;5030919;28;20025;-75
2023/02/11 09:15:29;;;;;;;73.28;40.30;;;8.70;99.90;;;;;;5059911;28;20025;-75
2023/02/11 09:17:55;;;;;;;72.22;38.80;;;8.70;99.90;;;;;;5069160;28;20082;-75
2023/02/11 09:20:21;;;;;;;68.18;37.97;;;8.80;99.90;;;;;;5062941;28;20414;-75
2023/02/11 09:22:47;;;;;;;76.03;39.55;;;8.80;99.90;;;;;;5028761;28;20025;-74
2023/02/11 09:25:12;;;;;;;76.57;41.15;;;8.90;99.90;;;;;;5067584;28;20044;-75
2023/02/11 09:27:38;;;;;;;76.60;38.17;;;8.90;99.90;;;;;;5068330;28;20059;-73
2023/02/11 09:30:04;;;;;;;69.95;37.95;;;8.90;99.90;;;;;;5068329;28;20112;-74
2023/02/11 09:32:29;;;;;;;51.47;29.02;;;9.00;99.80;;;;;;5059496;28;20060;-74
2023/02/11 09:34:55;;;;;;;63.13;36.83;;;9.10;99.60;;;;;;5045709;28;20064;-74
2023/02/11 09:37:21;;;;;;;67.55;38.45;;;9.10;99.30;;;;;;5053212;28;20021;-76
2023/02/11 09:39:46;;;;;;;73.10;39.05;;;9.20;99.40;;;;;;5052220;28;20737;-75
2023/02/11 09:42:38;;;;;;;68.57;37.90;;;9.20;99.60;;;;;;5032063;28;20408;-75
2023/02/11 09:45:14;;;;;;;64.60;34.92;;;9.30;99.30;;;;;;5035361;28;20044;-73
2023/02/11 09:47:47;;;;;;;66.22;36.45;;;9.30;99.10;;;;;;5028800;28;20032;-74
2023/02/11 09:50:18;;;;;;;70.43;38.88;;;9.30;99.10;;;;;;5028105;28;20384;-74
2023/02/11 09:52:48;;;;;;;60.67;36.17;;;9.40;99.00;;;;;;5046333;28;20082;-75
2023/02/11 09:55:31;;;;;;;46.30;28.52;;;9.40;99.10;;;;;;5048902;28;20115;-73
2023/02/11 09:57:57;;;;;;;52.42;31.15;;;9.40;98.60;;;;;;5058687;28;20029;-73
2023/02/11 10:00:36;;;;;;;65.30;36.00;;;9.40;98.80;;;;;;5027654;28;20038;-75
2023/02/11 10:03:19;;;;;;;57.85;32.17;;;9.40;98.80;;;;;;5044655;28;20065;-75
2023/02/11 10:05:50;;;;;;;69.90;38.97;;;9.40;99.00;;;;;;5047837;28;20041;-74
2023/02/11 10:08:41;;;;;;;68.93;36.28;;;9.40;99.00;;;;;;5046780;28;20025;-74
2023/02/11 10:11:15;;;;;;;63.38;37.72;;;9.40;98.80;;;;;;5048145;28;20025;-74
2023/02/11 10:14:41;;;;;;;74.60;39.17;;;9.50;98.80;;;;;;5049130;28;20047;-74
2023/02/11 10:17:25;;;;;;;59.70;32.75;;;9.50;99.00;;;;;;5051756;28;20032;-74
2023/02/11 10:19:59;;;;;;;64.53;37.00;;;9.60;98.70;;;;;;5050432;28;20021;-74
2023/02/11 10:22:32;;;;;;;52.70;31.20;;;9.50;98.70;;;;;;5051588;28;20049;-74
2023/02/11 10:24:59;;;;;;;68.72;34.38;;;9.50;98.80;;;;;;5048108;28;20087;-74
2023/02/11 10:27:34;;;;;;;50.00;29.58;;;9.60;98.80;;;;;;5031712;28;20060;-74
2023/02/11 10:30:15;;;;;;;70.32;37.63;;;9.70;98.60;;;;;;5046918;28;20025;-74
2023/02/11 10:32:47;;;;;;;60.90;37.58;;;9.70;98.60;;;;;;5031757;28;20048;-74
2023/02/11 10:35:20;;;;;;;64.05;37.42;;;9.70;98.40;;;;;;5056990;28;20487;-74
2023/02/11 10:37:46;;;;;;;55.22;35.13;;;9.70;98.40;;;;;;5071174;28;20024;-74
2023/02/11 10:40:21;;;;;;;53.53;32.53;;;9.80;98.40;;;;;;5051075;28;20058;-73
2023/02/11 10:42:50;;;;;;;52.78;33.25;;;9.90;98.30;;;;;;5044473;28;20025;-74
2023/02/11 10:45:38;;;;;;;47.13;30.70;;;9.90;98.20;;;;;;5046873;28;20048;-74
2023/02/11 10:48:25;;;;;;;49.05;30.20;;;9.80;98.40;;;;;;5031570;28;20025;-74
2023/02/11 10:51:07;;;;;;;61.08;37.60;;;9.90;98.10;;;;;;5031534;28;20055;-75
2023/02/11 10:53:34;;;;;;;55.75;32.28;;;10.00;98.10;;;;;;5063653;28;20029;-75
2023/02/11 10:56:02;;;;;;;54.58;34.20;;;10.10;98.00;;;;;;5050708;28;20479;-74
2023/02/11 10:58:40;;;;;;;55.10;31.95;;;10.10;97.90;;;;;;5050205;28;20021;-74
2023/02/11 11:01:06;;;;;;;54.95;32.08;;;10.10;97.80;;;;;;5051108;28;20032;-73
2023/02/11 11:03:38;;;;;;;62.63;38.20;;;10.10;97.80;;;;;;5062762;28;20029;-76
2023/02/11 11:06:07;;;;;;;60.80;39.10;;;10.20;97.80;;;;;;5049631;28;20040;-74
2023/02/11 11:08:45;;;;;;;49.28;30.08;;;10.20;97.80;;;;;;5050595;28;20036;-74
2023/02/11 11:11:19;;;;;;;56.95;36.47;;;10.30;97.80;;;;;;5049532;28;20025;-75
2023/02/11 11:14:00;;;;;;;60.05;34.13;;;10.40;97.60;;;;;;5057709;28;20127;-74
2023/02/11 11:16:34;;;;;;;50.58;31.45;;;10.40;97.60;;;;;;5059691;28;20064;-75
2023/02/11 11:19:06;;;;;;;49.65;32.10;;;10.50;97.50;;;;;;5030882;28;20040;-75
2023/02/11 11:21:41;;;;;;;58.38;34.72;;;10.50;97.30;;;;;;5030552;28;20120;-75
2023/02/11 11:24:15;;;;;;;51.97;33.75;;;10.60;97.20;;;;;;5049483;28;20444;-74
2023/02/11 11:26:43;;;;;;;56.38;30.73;;;10.60;97.20;;;;;;5059811;28;20056;-76
2023/02/11 11:29:23;;;;;;;45.70;29.60;;;10.70;97.10;;;;;;5050244;28;20028;-75
2023/02/11 11:31:52;;;;;;;48.70;30.98;;;10.80;96.90;;;;;;5049600;28;20067;-73
2023/02/11 11:34:30;;;;;;;52.67;31.77;;;10.80;96.60;;;;;;5047014;28;20028;-74
2023/02/11 11:36:58;;;;;;;36.72;25.13;;;10.80;96.50;;;;;;5035195;28;20596;-76
2023/02/11 11:39:33;;;;;;;37.30;24.20;;;10.90;96.50;;;;;;5053616;28;20437;-75
2023/02/11 11:42:02;;;;;;;48.83;31.08;;;10.90;96.30;;;;;;5047732;28;20021;-72
2023/02/11 11:44:32;;;;;;;33.58;21.38;;;11.10;96.20;;;;;;5050189;28;20033;-73
2023/02/11 11:47:10;;;;;;;36.58;22.17;;;11.10;95.90;;;;;;5050057;28;20033;-74
2023/02/11 11:50:09;;;;;;;46.88;29.52;;;11.10;95.80;;;;;;5047325;28;20122;-75
2023/02/11 11:52:53;;;;;;;33.30;22.80;;;11.00;95.70;;;;;;5040115;28;20079;-74
2023/02/11 11:55:21;;;;;;;39.40;25.98;;;11.10;95.60;;;;;;5050101;28;20498;-75
2023/02/11 11:57:47;;;;;;;30.10;20.98;;;11.10;95.60;;;;;;5049649;28;20467;-75
2023/02/11 12:00:20;;;;;;;33.55;20.88;;;11.20;95.50;;;;;;5050043;28;20479;-75
2023/02/11 12:03:26;;;;;;;30.70;20.45;;;11.20;95.50;;;;;;5058214;28;20146;-75
2023/02/11 12:06:20;;;;;;;30.60;20.52;;;11.30;95.60;;;;;;5068889;28;20044;-75
2023/02/11 12:08:57;;;;;;;29.67;20.45;;;11.40;95.30;;;;;;5070361;28;20112;-75
2023/02/11 12:11:35;;;;;;;33.33;20.67;;;11.50;95.00;;;;;;5041798;28;20090;-75
2023/02/11 12:14:25;;;;;;;27.08;18.50;;;11.60;94.80;;;;;;5045366;28;20032;-75
2023/02/11 12:17:11;;;;;;;27.55;19.42;;;11.70;94.50;;;;;;5030670;28;20032;-75
2023/02/11 12:19:46;;;;;;;30.63;18.40;;;11.70;94.40;;;;;;5030054;28;20029;-74
2023/02/11 12:22:24;;;;;;;28.25;16.17;;;11.60;94.30;;;;;;5038348;28;20663;-75
2023/02/11 12:25:00;;;;;;;27.25;15.45;;;11.70;94.30;;;;;;5069358;28;20070;-74
2023/02/11 12:28:02;;;;;;;22.15;14.48;;;11.60;94.20;;;;;;5054986;28;20044;-76
2023/02/11 12:31:06;;;;;;;17.77;11.05;;;11.70;94.20;;;;;;5049722;28;20033;-76
2023/02/11 12:34:09;;;;;;;26.27;14.00;;;11.80;93.70;;;;;;5048695;28;20032;-74
2023/02/11 12:37:08;;;;;;;24.15;16.27;;;12.00;93.70;;;;;;5048493;28;20734;-75
2023/02/11 12:39:42;;;;;;;22.73;14.57;;;12.10;93.70;;;;;;5053561;28;20029;-75
2023/02/11 12:45:47;;;;;;;17.52;12.90;;;12.40;93.40;;;;;;5048782;28;20072;-75
2023/02/11 12:48:28;;;;;;;20.42;13.95;;;12.40;92.80;;;;;;5033391;28;20492;-74
2023/02/11 12:51:00;;;;;;;18.38;11.65;;;12.40;92.80;;;;;;5032394;28;20087;-74
2023/02/11 12:54:02;;;;;;;24.95;15.02;;;12.40;92.50;;;;;;5046458;28;20032;-74
2023/02/11 12:56:31;;;;;;;21.33;13.85;;;12.30;92.60;;;;;;5049480;28;20103;-74
2023/02/11 12:59:00;;;;;;;21.30;12.32;;;12.50;92.70;;;;;;5048458;28;20021;-74
2023/02/11 13:01:31;;;;;;;19.77;11.93;;;12.60;92.50;;;;;;5048850;28;20017;-74